Time;durP1;ratioP1;P1;durP2;ratioP2;P2;SDS_P1;SDS_P2;PMS_P1;PMS_P2;Temp;Humidity;BMP_temperature;BMP_pressure;BME280_temperature;BME280_humidity;BME280_pressure;Samples;Min_cycle;Max_cycle;Signal;HPM_P1;HPM_P2
2022/06/15 00:02:15;;;;;;;4.40;4.00;;;;;;;15.40;71.87;102076.28;4880477;29;20462;-79
2022/06/15 00:04:40;;;;;;;4.70;4.30;;;;;;;15.39;71.99;102069.31;4880991;29;20120;-79
2022/06/15 00:07:05;;;;;;;4.82;4.07;;;;;;;15.37;72.10;102076.41;4879295;29;20041;-79
2022/06/15 00:09:31;;;;;;;7.75;4.78;;;;;;;15.35;71.91;102070.34;4864857;29;20120;-79
2022/06/15 00:11:56;;;;;;;4.93;4.45;;;;;;;15.33;72.24;102064.25;4880243;29;20040;-79
2022/06/15 00:14:27;;;;;;;5.00;4.60;;;;;;;15.30;72.12;102061.78;4865868;29;20048;-79
2022/06/15 00:16:53;;;;;;;4.93;4.40;;;;;;;15.28;72.30;102066.22;4880116;29;20347;-79
2022/06/15 00:19:18;;;;;;;5.45;5.05;;;;;;;15.25;72.37;102063.75;4864727;29;20184;-79
2022/06/15 00:21:44;;;;;;;5.15;4.75;;;;;;;15.22;72.66;102062.06;4880365;29;20043;-79
2022/06/15 00:24:10;;;;;;;4.60;4.20;;;;;;;15.22;72.61;102061.22;4883404;29;20116;-79
2022/06/15 00:26:36;;;;;;;4.70;4.30;;;;;;;15.21;72.94;102060.38;4864834;29;20041;-79
2022/06/15 00:29:01;;;;;;;5.80;4.18;;;;;;;15.20;72.85;102066.53;4892043;29;20044;-79
2022/06/15 00:31:27;;;;;;;5.13;4.68;;;;;;;15.20;72.78;102063.06;4881063;29;20041;-79
2022/06/15 00:33:52;;;;;;;5.13;4.63;;;;;;;15.19;72.71;102061.34;4880551;29;20060;-79
2022/06/15 00:36:21;;;;;;;7.18;5.18;;;;;;;15.15;73.06;102061.47;4864752;29;20105;-79
2022/06/15 00:38:55;;;;;;;5.07;4.57;;;;;;;15.12;73.09;102058.94;4866960;29;20044;-79
2022/06/15 00:41:28;;;;;;;5.47;4.43;;;;;;;15.09;73.18;102053.78;4892370;29;20086;-79
2022/06/15 00:44:17;;;;;;;5.05;4.55;;;;;;;15.08;73.07;102057.38;4898361;29;20327;-79
2022/06/15 00:46:45;;;;;;;4.57;4.28;;;;;;;15.08;72.97;102054.72;4896537;29;20059;-79
2022/06/15 00:49:13;;;;;;;5.70;4.28;;;;;;;15.08;73.20;102054.72;4898151;29;20028;-79
2022/06/15 00:51:39;;;;;;;5.13;4.63;;;;;;;15.07;72.85;102058.28;4899977;29;20185;-79
2022/06/15 00:54:07;;;;;;;4.68;4.22;;;;;;;15.07;72.98;102057.41;4898198;29;20054;-79
2022/06/15 00:56:33;;;;;;;4.95;4.47;;;;;;;15.05;72.94;102057.47;4897373;29;20256;-79
2022/06/15 00:59:28;;;;;;;4.55;3.97;;;;;;;15.06;73.26;102055.69;4885410;29;20251;-79
2022/06/15 01:01:53;;;;;;;6.25;4.43;;;;;;;15.05;73.10;102046.06;4902564;29;20043;-79
2022/06/15 01:04:21;;;;;;;5.38;4.78;;;;;;;15.03;73.22;102043.50;4886539;29;20040;-79
2022/06/15 01:06:49;;;;;;;5.32;4.45;;;;;;;15.00;73.17;102037.47;4895942;29;20045;-79
2022/06/15 01:09:27;;;;;;;6.03;4.97;;;;;;;14.98;73.62;102027.84;4901314;29;20279;-79
2022/06/15 01:11:58;;;;;;;6.07;4.90;;;;;;;14.95;73.54;102035.91;4876984;29;20255;-79
2022/06/15 01:14:43;;;;;;;5.97;4.50;;;;;;;14.94;73.55;102034.16;4884138;29;20041;-79
2022/06/15 01:17:52;;;;;;;5.88;5.25;;;;;;;14.90;73.59;102035.22;4885083;29;20205;-79
2022/06/15 01:20:40;;;;;;;5.70;4.45;;;;;;;14.88;73.59;102026.50;4829981;29;20051;-79
2022/06/15 01:23:17;;;;;;;6.03;4.55;;;;;;;14.88;73.94;102033.53;4870184;29;20029;-79
2022/06/15 01:25:51;;;;;;;5.32;4.80;;;;;;;14.86;73.76;102033.63;4882907;29;20386;-79
2022/06/15 01:28:26;;;;;;;6.13;4.53;;;;;;;14.84;73.83;102034.59;4885107;29;20378;-79
2022/06/15 01:30:54;;;;;;;5.90;4.60;;;;;;;14.82;73.98;102032.00;4883579;29;20101;-79
2022/06/15 01:33:36;;;;;;;5.25;4.32;;;;;;;14.81;74.13;102037.34;4883941;29;20082;-79
2022/06/15 01:36:33;;;;;;;5.57;4.50;;;;;;;14.78;74.35;102033.06;4887097;29;20359;-79
2022/06/15 01:39:10;;;;;;;4.90;4.55;;;;;;;14.75;74.20;102026.13;4900692;29;20044;-79
2022/06/15 01:41:42;;;;;;;5.05;4.65;;;;;;;14.75;74.55;102030.53;4891536;29;20266;-79
2022/06/15 01:44:19;;;;;;;5.80;4.95;;;;;;;14.71;74.21;102024.50;4883290;29;20395;-79
2022/06/15 01:46:46;;;;;;;7.28;4.82;;;;;;;14.69;74.77;102028.16;4883714;29;20592;-79
2022/06/15 01:49:28;;;;;;;7.75;6.05;;;;;;;14.68;74.82;102026.41;4884506;29;20053;-79
2022/06/15 01:51:57;;;;;;;7.28;5.03;;;;;;;14.66;74.84;102025.63;4866623;29;20388;-79
2022/06/15 01:54:32;;;;;;;6.53;4.95;;;;;;;14.64;75.03;102019.56;4883931;29;20293;-79
2022/06/15 01:56:59;;;;;;;6.75;5.22;;;;;;;14.63;74.92;102017.84;4881638;29;20359;-79
2022/06/15 01:59:52;;;;;;;5.97;5.40;;;;;;;14.62;75.17;102018.75;4885026;29;20384;-79
2022/06/15 02:02:33;;;;;;;8.38;4.63;;;;;;;14.60;75.17;102008.25;4876730;29;20163;-79
2022/06/15 02:05:06;;;;;;;7.63;5.53;;;;;;;14.61;74.90;102003.84;4901885;29;20371;-79
2022/06/15 02:07:45;;;;;;;5.03;4.63;;;;;;;14.59;74.87;102007.41;4900329;29;20037;-79
2022/06/15 02:10:17;;;;;;;4.93;4.53;;;;;;;14.60;75.10;102010.91;4883278;29;20032;-79
2022/06/15 02:12:59;;;;;;;6.88;5.20;;;;;;;14.59;74.71;102007.41;4901638;29;20033;-79
2022/06/15 02:15:28;;;;;;;5.45;4.82;;;;;;;14.57;75.24;102005.72;4861755;29;20036;-79
2022/06/15 02:17:58;;;;;;;5.65;5.15;;;;;;;14.58;74.87;102004.84;4881695;29;20041;-79
2022/06/15 02:20:28;;;;;;;6.93;5.47;;;;;;;14.56;75.31;102004.00;4883014;29;20343;-79
2022/06/15 02:22:57;;;;;;;5.40;4.90;;;;;;;14.56;74.87;102007.50;4882683;29;20052;-79
2022/06/15 02:25:27;;;;;;;9.63;4.95;;;;;;;14.55;74.95;102003.16;4881839;29;20185;-79
2022/06/15 02:27:53;;;;;;;6.75;5.05;;;;;;;14.53;75.23;102001.47;4886771;29;20043;-79
2022/06/15 02:30:23;;;;;;;5.03;4.63;;;;;;;14.50;75.00;101996.34;4900116;29;20056;-79
2022/06/15 02:32:50;;;;;;;6.15;4.97;;;;;;;14.48;75.34;101996.41;4884167;29;20104;-79
2022/06/15 02:35:17;;;;;;;5.32;4.90;;;;;;;14.47;75.49;101994.66;4882665;29;20104;-79
2022/06/15 02:37:44;;;;;;;6.93;4.95;;;;;;;14.46;75.28;101995.59;4866316;29;20064;-79
2022/06/15 02:40:13;;;;;;;5.63;5.00;;;;;;;14.45;75.18;101995.66;4887210;29;20032;-79
2022/06/15 02:42:40;;;;;;;5.28;4.78;;;;;;;14.47;75.12;101993.81;4899951;29;20052;-79
2022/06/15 02:45:11;;;;;;;5.03;4.53;;;;;;;14.43;75.19;101990.44;4884097;29;20032;-79
2022/06/15 02:47:41;;;;;;;5.10;4.60;;;;;;;14.44;75.27;101991.28;4884502;29;20040;-79
2022/06/15 02:50:08;;;;;;;5.75;5.10;;;;;;;14.42;75.52;101988.72;4900588;29;20048;-79
2022/06/15 02:52:42;;;;;;;5.53;4.55;;;;;;;14.44;75.25;101989.50;4889491;29;20051;-79
2022/06/15 02:55:10;;;;;;;5.70;5.03;;;;;;;14.43;75.35;101989.59;4882206;29;20029;-79
2022/06/15 02:57:45;;;;;;;4.88;4.47;;;;;;;14.42;75.17;101988.72;4883009;29;20045;-79
2022/06/15 03:00:12;;;;;;;5.75;5.25;;;;;;;14.41;75.11;101987.00;4865505;29;20234;-78
2022/06/15 03:02:37;;;;;;;4.95;4.45;;;;;;;14.40;75.08;101986.13;4867216;29;20064;-78
2022/06/15 03:05:03;;;;;;;6.78;5.13;;;;;;;14.39;75.18;101989.69;4865630;29;20043;-78
2022/06/15 03:07:29;;;;;;;6.95;4.57;;;;;;;14.38;75.13;101985.34;4874622;29;20048;-78
2022/06/15 03:09:54;;;;;;;5.20;4.60;;;;;;;14.39;74.81;101984.44;4870394;29;20212;-78
2022/06/15 03:12:19;;;;;;;7.68;4.53;;;;;;;14.38;75.29;101984.50;4854572;29;20049;-78
2022/06/15 03:14:45;;;;;;;5.40;4.90;;;;;;;14.36;75.26;101986.31;4855325;29;20045;-78
2022/06/15 03:17:10;;;;;;;5.93;4.72;;;;;;;14.35;75.14;101984.59;4831530;29;20244;-78
2022/06/15 03:19:36;;;;;;;7.85;5.38;;;;;;;14.32;75.52;101984.72;4848759;29;20303;-78
2022/06/15 03:22:01;;;;;;;5.50;4.80;;;;;;;14.29;75.80;101983.06;4879844;29;20064;-78
2022/06/15 03:24:26;;;;;;;4.95;4.55;;;;;;;14.28;75.53;101991.91;4882738;29;20044;-78
2022/06/15 03:26:52;;;;;;;7.15;4.97;;;;;;;14.28;75.36;101984.00;4847765;29;20049;-78
2022/06/15 03:29:18;;;;;;;4.65;4.22;;;;;;;14.29;75.44;101990.97;4871581;29;20033;-78
2022/06/15 03:31:44;;;;;;;5.60;4.18;;;;;;;14.29;75.58;101990.13;4881338;29;20208;-78
2022/06/15 03:34:09;;;;;;;5.18;4.65;;;;;;;14.29;75.36;101987.47;4897411;29;20327;-78
2022/06/15 03:36:34;;;;;;;4.68;4.28;;;;;;;14.27;75.09;101995.44;4876416;29;20045;-78
2022/06/15 03:39:00;;;;;;;5.03;4.53;;;;;;;14.27;75.07;101987.53;4881590;29;20080;-78
2022/06/15 03:41:25;;;;;;;6.80;4.43;;;;;;;14.28;75.46;101993.66;4897617;29;20339;-78
2022/06/15 03:43:51;;;;;;;5.50;4.35;;;;;;;14.27;75.09;101989.31;4880025;29;20044;-78
2022/06/15 03:46:16;;;;;;;5.55;4.50;;;;;;;14.26;75.09;101993.72;4864446;29;20043;-78
2022/06/15 03:48:42;;;;;;;4.85;4.38;;;;;;;14.26;74.96;101996.38;4863720;29;20049;-78
2022/06/15 03:51:07;;;;;;;5.93;4.60;;;;;;;14.24;75.17;101998.19;4879859;29;20044;-78
2022/06/15 03:53:33;;;;;;;5.60;5.07;;;;;;;14.25;74.86;101996.41;4866038;29;20394;-78
2022/06/15 03:55:58;;;;;;;5.57;4.15;;;;;;;14.24;75.12;101995.53;4886174;29;20037;-78
2022/06/15 03:58:24;;;;;;;5.15;4.47;;;;;;;14.23;74.95;101996.47;4847766;29;20136;-78
2022/06/15 04:00:50;;;;;;;5.00;4.53;;;;;;;14.24;75.18;101992.06;4879656;29;20076;-78
2022/06/15 04:03:16;;;;;;;4.85;4.38;;;;;;;14.23;75.08;101987.72;4878491;29;20029;-78
2022/06/15 04:05:45;;;;;;;5.18;4.60;;;;;;;14.20;75.33;101992.16;4863261;29;20043;-78
2022/06/15 04:11:08;;;;;;;4.78;4.38;;;;;;;14.16;75.75;101992.34;4879588;29;20148;-78
2022/06/15 04:13:35;;;;;;;5.45;5.03;;;;;;;14.13;76.29;101990.66;4889478;29;20040;-78
2022/06/15 04:16:02;;;;;;;6.40;4.53;;;;;;;14.12;76.01;101996.03;4897880;29;20128;-78
2022/06/15 04:18:28;;;;;;;5.78;4.68;;;;;;;14.10;76.59;101997.81;4898919;29;20045;-78
2022/06/15 04:20:53;;;;;;;5.50;4.55;;;;;;;14.08;76.21;101986.50;4881544;29;20239;-78
2022/06/15 04:23:20;;;;;;;5.32;4.38;;;;;;;14.07;76.57;101996.19;4898500;29;20142;-78
2022/06/15 04:25:54;;;;;;;5.15;4.68;;;;;;;14.07;77.13;102000.59;4883884;29;20052;-78
2022/06/15 04:28:21;;;;;;;5.25;4.72;;;;;;;14.04;77.28;101998.91;4879934;29;20041;-78
2022/06/15 04:30:47;;;;;;;8.05;4.85;;;;;;;14.04;77.20;102009.44;4879904;29;20340;-78
2022/06/15 04:33:14;;;;;;;7.65;5.10;;;;;;;14.02;77.43;102004.25;4863296;29;20040;-78
2022/06/15 04:35:40;;;;;;;9.85;5.35;;;;;;;14.04;77.58;102003.34;4896188;29;20324;-78
2022/06/15 04:38:06;;;;;;;5.05;4.57;;;;;;;14.02;77.73;102006.03;4885473;29;20059;-78
2022/06/15 04:40:32;;;;;;;6.80;4.30;;;;;;;14.01;77.96;101993.78;4866497;29;20358;-78
2022/06/15 04:42:57;;;;;;;6.28;4.65;;;;;;;14.03;77.82;102005.13;4882626;29;20025;-78
2022/06/15 04:45:23;;;;;;;4.97;4.57;;;;;;;14.04;77.75;101998.06;4883456;29;20388;-78
2022/06/15 04:47:48;;;;;;;6.53;4.60;;;;;;;14.05;77.50;101998.00;4882163;29;20363;-78
2022/06/15 04:50:15;;;;;;;5.38;4.93;;;;;;;14.06;77.47;101997.13;4876972;29;20066;-78
2022/06/15 04:52:43;;;;;;;5.32;4.72;;;;;;;14.07;78.14;101995.31;4883649;29;20109;-78
2022/06/15 04:55:10;;;;;;;5.28;4.70;;;;;;;14.06;78.11;102001.50;4882975;29;20114;-78
2022/06/15 04:57:36;;;;;;;5.47;4.82;;;;;;;14.05;78.18;101997.16;4866744;29;20037;-78
2022/06/15 05:00:03;;;;;;;10.52;5.47;;;;;;;14.05;78.32;101997.16;4889678;29;20064;-78
2022/06/15 05:02:29;;;;;;;5.45;4.88;;;;;;;14.07;78.57;101997.97;4884827;29;20402;-78
2022/06/15 05:04:56;;;;;;;7.68;5.13;;;;;;;14.01;78.88;101996.41;4873676;29;20037;-78
2022/06/15 05:07:21;;;;;;;11.05;5.80;;;;;;;14.01;79.27;101997.25;4851387;29;20088;-78
2022/06/15 05:09:47;;;;;;;7.47;5.55;;;;;;;14.00;79.46;102000.81;4866837;29;20118;-78
2022/06/15 05:12:13;;;;;;;5.68;4.40;;;;;;;14.02;79.00;102000.75;4882808;29;20037;-78
2022/06/15 05:14:39;;;;;;;6.28;4.97;;;;;;;14.00;79.31;101995.53;4881095;29;20055;-78
2022/06/15 05:17:04;;;;;;;9.00;5.15;;;;;;;14.02;79.35;101992.84;4865262;29;20108;-78
2022/06/15 05:19:30;;;;;;;11.38;5.72;;;;;;;14.04;79.32;101991.00;4868077;29;20330;-78
2022/06/15 05:21:55;;;;;;;7.75;4.70;;;;;;;14.06;78.94;101994.47;4846834;29;20043;-78
2022/06/15 05:24:20;;;;;;;8.18;5.28;;;;;;;14.07;79.09;101987.44;4880807;29;20040;-78
2022/06/15 05:26:46;;;;;;;7.03;4.20;;;;;;;14.09;78.92;101989.06;4843391;29;20090;-78
2022/06/15 05:29:11;;;;;;;6.07;5.30;;;;;;;14.09;79.10;101990.84;4882056;29;20045;-78
2022/06/15 05:31:36;;;;;;;8.88;5.38;;;;;;;14.10;79.10;101984.66;4849581;29;20336;-78
2022/06/15 05:34:04;;;;;;;7.57;5.50;;;;;;;14.12;79.23;101988.13;4860794;29;20044;-78
2022/06/15 05:36:32;;;;;;;5.80;5.40;;;;;;;14.11;79.34;101991.66;4865623;29;20045;-78
2022/06/15 05:38:58;;;;;;;8.40;4.57;;;;;;;14.11;79.37;101994.28;4879267;29;20041;-78
2022/06/15 05:41:23;;;;;;;6.20;5.15;;;;;;;14.10;79.17;101989.94;4882174;29;20394;-78
2022/06/15 05:44:00;;;;;;;7.60;4.93;;;;;;;14.13;79.25;101989.81;4881314;29;20265;-78
2022/06/15 05:46:32;;;;;;;6.50;4.53;;;;;;;14.12;78.16;102001.28;4882516;29;20057;-78
2022/06/15 05:48:59;;;;;;;7.47;4.75;;;;;;;14.14;78.43;102004.72;4879628;29;20132;-78
2022/06/15 05:51:24;;;;;;;9.32;5.10;;;;;;;14.16;77.91;102006.38;4882697;29;20047;-78
2022/06/15 05:53:50;;;;;;;8.68;4.57;;;;;;;14.18;78.18;102009.81;4883925;29;20048;-78
2022/06/15 05:56:16;;;;;;;8.88;4.68;;;;;;;14.21;77.63;102006.22;4883601;29;20037;-78
2022/06/15 05:58:42;;;;;;;6.45;4.32;;;;;;;14.24;77.88;102006.09;4882769;29;20045;-78
2022/06/15 06:01:20;;;;;;;7.07;4.30;;;;;;;14.26;77.70;102006.03;4881067;29;20336;-78
2022/06/15 06:03:45;;;;;;;7.45;4.50;;;;;;;14.28;77.17;102006.81;4881406;29;20453;-78
2022/06/15 06:06:11;;;;;;;6.18;4.50;;;;;;;14.30;76.96;102003.22;4881127;29;20044;-79
2022/06/15 06:08:36;;;;;;;5.10;3.97;;;;;;;14.32;76.90;102003.19;4881823;29;20293;-78
2022/06/15 06:11:02;;;;;;;12.45;5.07;;;;;;;14.35;76.60;102009.19;4881501;29;20092;-78
2022/06/15 06:13:28;;;;;;;6.28;4.47;;;;;;;14.40;76.92;102003.72;4888786;29;20383;-78
2022/06/15 06:15:55;;;;;;;5.65;4.20;;;;;;;14.41;76.99;102002.81;4898707;29;20041;-78
2022/06/15 06:18:21;;;;;;;6.60;4.43;;;;;;;14.41;76.83;102000.19;4882290;29;20041;-78
2022/06/15 06:20:47;;;;;;;5.85;4.00;;;;;;;14.47;76.65;102004.38;4883711;29;20040;-79
2022/06/15 06:23:14;;;;;;;6.05;3.92;;;;;;;14.49;76.92;102005.16;4887519;29;20223;-78
2022/06/15 06:25:41;;;;;;;6.72;4.50;;;;;;;14.52;76.80;102002.41;4864712;29;20045;-78
2022/06/15 06:28:06;;;;;;;9.02;4.43;;;;;;;14.53;76.25;102007.59;4863119;29;20055;-78
2022/06/15 06:30:31;;;;;;;8.98;4.72;;;;;;;14.56;76.16;102002.22;4878518;29;20040;-78
2022/06/15 06:32:57;;;;;;;8.35;4.30;;;;;;;14.58;75.89;102000.41;4849377;29;20048;-78
2022/06/15 06:35:23;;;;;;;7.25;4.35;;;;;;;14.62;75.81;102003.78;4849267;29;20039;-78
2022/06/15 06:37:48;;;;;;;7.95;3.92;;;;;;;14.65;75.68;102003.69;4862027;29;20061;-78
2022/06/15 06:40:16;;;;;;;4.47;3.60;;;;;;;14.69;75.69;102009.69;4863147;29;20064;-78
2022/06/15 06:42:41;;;;;;;9.13;3.65;;;;;;;14.72;75.41;102013.06;4862643;29;20340;-78
2022/06/15 06:45:09;;;;;;;5.65;3.45;;;;;;;14.75;75.13;102007.69;4866256;29;20036;-78
2022/06/15 06:47:35;;;;;;;9.52;4.05;;;;;;;14.81;74.64;102016.25;4882061;29;20063;-78
2022/06/15 06:50:00;;;;;;;9.57;3.60;;;;;;;14.82;74.11;102018.81;4879443;29;20285;-78
2022/06/15 06:52:26;;;;;;;5.13;3.20;;;;;;;14.86;73.88;102019.56;4880581;29;20076;-78
2022/06/15 06:54:51;;;;;;;5.07;3.72;;;;;;;14.87;73.63;102016.03;4851990;29;20037;-78
2022/06/15 06:57:16;;;;;;;5.90;3.78;;;;;;;14.91;73.65;102021.09;4866340;29;20308;-78
2022/06/15 06:59:42;;;;;;;8.48;3.50;;;;;;;14.95;73.75;102021.81;4849933;29;20440;-78
2022/06/15 07:02:09;;;;;;;6.10;3.70;;;;;;;14.98;73.43;102021.72;4883215;29;20040;-78
2022/06/15 07:04:35;;;;;;;4.20;3.80;;;;;;;15.04;73.60;102020.59;4872370;29;20109;-78
2022/06/15 07:07:00;;;;;;;6.10;3.22;;;;;;;15.09;74.10;102026.56;4849596;29;20045;-78
2022/06/15 07:09:26;;;;;;;7.30;3.50;;;;;;;15.13;73.33;102039.56;4863676;29;20346;-78
2022/06/15 07:11:53;;;;;;;12.80;4.00;;;;;;;15.18;73.51;102022.69;4845621;29;20121;-78
2022/06/15 07:14:18;;;;;;;5.75;3.15;;;;;;;15.22;72.83;102024.28;4879447;29;20067;-78
2022/06/15 07:16:43;;;;;;;10.10;3.55;;;;;;;15.31;72.80;102032.66;4878853;29;20079;-78
2022/06/15 07:19:10;;;;;;;6.95;3.70;;;;;;;15.34;72.32;102027.25;4861814;29;20044;-78
2022/06/15 07:21:38;;;;;;;9.35;3.67;;;;;;;15.39;72.37;102032.34;4876509;29;20137;-78
2022/06/15 07:24:03;;;;;;;9.00;3.78;;;;;;;15.44;72.62;102033.00;4859848;29;20085;-78
2022/06/15 07:26:32;;;;;;;10.57;5.07;;;;;;;15.51;72.18;102038.88;4868516;29;20053;-79
2022/06/15 07:28:58;;;;;;;8.35;3.42;;;;;;;15.54;72.31;102041.41;4875790;29;20039;-78
2022/06/15 07:31:34;;;;;;;10.90;3.67;;;;;;;15.60;71.94;102035.84;4882882;29;20053;-78
2022/06/15 07:34:00;;;;;;;5.80;3.83;;;;;;;15.69;71.23;102037.25;4862375;29;20062;-78
2022/06/15 07:36:26;;;;;;;6.07;3.38;;;;;;;15.73;71.00;102030.91;4843937;29;20315;-78
2022/06/15 07:38:54;;;;;;;3.42;2.80;;;;;;;15.78;70.82;102028.94;4877438;29;20040;-78
2022/06/15 07:41:20;;;;;;;4.85;3.05;;;;;;;15.85;71.03;102038.31;4877664;29;20032;-78
2022/06/15 07:43:45;;;;;;;10.07;3.50;;;;;;;15.93;70.04;102038.88;4858633;29;20424;-78
2022/06/15 07:46:11;;;;;;;5.50;2.75;;;;;;;16.00;69.85;102035.94;4877634;29;20029;-78
2022/06/15 07:51:28;;;;;;;11.43;3.42;;;;;;;16.16;68.65;102036.97;4879456;29;20231;-78
2022/06/15 07:53:55;;;;;;;7.68;2.88;;;;;;;16.25;68.04;102030.41;4881654;29;20033;-78
2022/06/15 07:56:21;;;;;;;5.78;3.38;;;;;;;16.30;68.16;102026.63;4857195;29;20079;-78
2022/06/15 07:58:46;;;;;;;4.03;2.40;;;;;;;16.38;68.15;102028.91;4875810;29;20386;-78
2022/06/15 08:01:12;;;;;;;5.88;2.63;;;;;;;16.48;66.14;102032.84;4861757;29;20037;-78
2022/06/15 08:03:37;;;;;;;9.00;3.00;;;;;;;16.54;65.78;102037.00;4862374;29;20044;-78
2022/06/15 08:06:03;;;;;;;8.80;2.72;;;;;;;16.57;65.64;102031.56;4869180;29;20128;-78
2022/06/15 08:08:30;;;;;;;8.10;2.60;;;;;;;16.59;65.31;102024.41;4843911;29;20081;-78
2022/06/15 08:10:56;;;;;;;9.95;3.05;;;;;;;16.69;65.33;102030.13;4878002;29;20093;-78
2022/06/15 08:13:21;;;;;;;5.85;2.90;;;;;;;16.78;64.21;102028.81;4877350;29;20297;-78
2022/06/15 08:15:48;;;;;;;4.50;2.33;;;;;;;16.79;64.76;102026.13;4881203;29;20107;-78
2022/06/15 08:18:17;;;;;;;5.57;2.45;;;;;;;16.93;63.59;102033.41;4863420;29;20044;-78
2022/06/15 08:20:47;;;;;;;6.45;2.10;;;;;;;17.00;60.74;102029.53;4862524;29;20052;-78
2022/06/15 08:23:19;;;;;;;4.28;2.17;;;;;;;17.12;60.68;102024.56;4869392;29;20289;-78
2022/06/15 08:25:51;;;;;;;6.90;2.55;;;;;;;17.21;60.80;102029.41;4875181;29;20041;-78
2022/06/15 08:28:20;;;;;;;6.95;1.60;;;;;;;17.24;59.03;102035.38;4868091;29;20048;-78
2022/06/15 08:30:47;;;;;;;6.95;1.98;;;;;;;17.31;58.04;102035.09;4881127;29;20490;-78
2022/06/15 08:33:13;;;;;;;7.65;1.90;;;;;;;17.38;58.24;102033.84;4861305;29;20455;-78
2022/06/15 08:35:39;;;;;;;2.75;1.75;;;;;;;17.34;57.70;102033.16;4866928;29;20311;-78
2022/06/15 08:38:07;;;;;;;4.85;2.03;;;;;;;17.33;59.37;102035.88;4881744;29;20045;-78
2022/06/15 08:40:48;;;;;;;3.15;2.22;;;;;;;17.42;59.00;102033.63;4857654;29;20423;-78
2022/06/15 08:43:46;;;;;;;4.03;2.65;;;;;;;17.47;59.18;102030.75;4866617;29;20072;-78
2022/06/15 08:46:29;;;;;;;8.03;2.67;;;;;;;17.53;58.99;102033.06;4847368;29;20061;-78
2022/06/15 08:49:07;;;;;;;2.95;2.20;;;;;;;17.58;58.40;102024.91;4877118;29;20336;-78
2022/06/15 08:51:37;;;;;;;8.13;2.55;;;;;;;17.62;58.88;102037.03;4876024;29;20351;-78
2022/06/15 08:54:23;;;;;;;6.55;2.47;;;;;;;17.66;58.92;102030.66;4881754;29;20044;-78
2022/06/15 08:57:08;;;;;;;6.15;2.35;;;;;;;17.68;59.17;102028.78;4877279;29;20522;-78
2022/06/15 08:59:47;;;;;;;7.22;2.40;;;;;;;17.70;59.05;102031.34;4878516;29;20044;-78
2022/06/15 09:02:35;;;;;;;4.07;2.42;;;;;;;17.77;58.88;102022.13;4876723;29;20032;-78
2022/06/15 09:05:32;;;;;;;6.55;2.20;;;;;;;17.84;58.27;102023.53;4877525;29;20048;-78
2022/06/15 09:08:14;;;;;;;5.30;2.00;;;;;;;17.87;57.64;102017.28;4870947;29;20146;-78
2022/06/15 09:10:49;;;;;;;3.33;2.03;;;;;;;17.95;57.68;102021.19;4882599;29;20345;-78
2022/06/15 09:13:22;;;;;;;5.25;2.03;;;;;;;18.01;57.38;102022.69;4870431;29;20039;-78
2022/06/15 09:15:59;;;;;;;6.45;2.17;;;;;;;17.98;57.87;102018.41;4878567;29;20048;-78
2022/06/15 09:18:32;;;;;;;4.03;2.30;;;;;;;18.03;57.20;102021.66;4877648;29;20029;-78
2022/06/15 09:21:07;;;;;;;3.35;1.77;;;;;;;18.05;57.21;102020.75;4882752;29;20052;-78
2022/06/15 09:23:53;;;;;;;3.25;2.00;;;;;;;18.14;57.38;102030.84;4868587;29;20033;-78
2022/06/15 09:26:28;;;;;;;5.22;1.98;;;;;;;18.19;55.43;102020.81;4862642;29;20041;-78
2022/06/15 09:29:10;;;;;;;5.13;2.05;;;;;;;18.23;55.41;102023.25;4879888;29;20080;-78
2022/06/15 09:31:43;;;;;;;6.32;2.70;;;;;;;18.23;55.28;102012.63;4884782;29;20045;-78
2022/06/15 09:34:16;;;;;;;4.43;2.10;;;;;;;18.27;54.48;102017.78;4879541;29;20084;-78
2022/06/15 09:37:00;;;;;;;6.53;2.22;;;;;;;18.40;55.78;102017.00;4880087;29;20065;-78
2022/06/15 09:39:27;;;;;;;3.65;2.55;;;;;;;18.47;54.82;102009.56;4872018;29;20055;-79
2022/06/15 09:42:19;;;;;;;2.55;2.00;;;;;;;18.52;55.02;102011.97;4885762;29;20036;-78
2022/06/15 09:44:53;;;;;;;5.10;2.40;;;;;;;18.52;55.09;102012.84;4869013;29;20434;-78
2022/06/15 09:47:45;;;;;;;7.45;2.47;;;;;;;18.59;55.26;102021.28;4887208;29;20208;-78
2022/06/15 09:50:20;;;;;;;5.78;2.30;;;;;;;18.60;55.59;102018.56;4878935;29;20045;-77
2022/06/15 09:52:56;;;;;;;4.47;2.40;;;;;;;18.58;55.13;102015.13;4880190;29;20051;-78
2022/06/15 09:55:45;;;;;;;2.63;2.00;;;;;;;18.55;56.00;102017.94;4880713;29;20040;-78
2022/06/15 09:58:16;;;;;;;5.72;2.50;;;;;;;18.56;55.65;102018.81;4883437;29;20304;-78
2022/06/15 10:00:44;;;;;;;6.97;2.53;;;;;;;18.61;55.20;102022.09;4882963;29;20280;-78
2022/06/15 10:03:28;;;;;;;5.47;2.08;;;;;;;18.61;56.10;102014.13;4885543;29;20073;-78
2022/06/15 10:05:57;;;;;;;5.05;2.03;;;;;;;18.67;54.10;102027.03;4863973;29;20076;-78
2022/06/15 10:08:23;;;;;;;3.25;2.22;;;;;;;18.74;53.61;102027.56;4878066;29;20355;-78
2022/06/15 10:10:55;;;;;;;3.40;2.25;;;;;;;18.85;52.83;102024.34;4855765;29;20085;-78
2022/06/15 10:13:21;;;;;;;6.55;1.75;;;;;;;18.85;52.72;102026.97;4859804;29;20109;-78
2022/06/15 10:15:56;;;;;;;3.80;1.88;;;;;;;18.84;53.64;102019.94;4860964;29;20497;-78
2022/06/15 10:18:43;;;;;;;4.63;2.25;;;;;;;18.87;51.99;102017.13;4863410;29;20052;-78
2022/06/15 10:21:14;;;;;;;5.50;2.25;;;;;;;18.91;53.09;102011.53;4879188;29;20033;-78
2022/06/15 10:23:54;;;;;;;6.57;2.40;;;;;;;18.92;53.08;102013.28;4875700;29;20322;-78
2022/06/15 10:26:40;;;;;;;6.10;2.35;;;;;;;19.07;53.27;102011.53;4880253;29;20064;-78
2022/06/15 10:29:15;;;;;;;3.63;2.20;;;;;;;19.05;53.63;102028.50;4877509;29;20044;-79
2022/06/15 10:31:56;;;;;;;6.22;2.33;;;;;;;19.12;53.42;102020.09;4862254;29;20037;-78
2022/06/15 10:34:29;;;;;;;4.72;2.50;;;;;;;19.16;53.69;102016.28;4877992;29;20086;-78
2022/06/15 10:37:00;;;;;;;7.15;2.50;;;;;;;19.17;53.66;102019.78;4875671;29;20040;-78
2022/06/15 10:39:28;;;;;;;6.28;2.35;;;;;;;19.22;53.47;102017.72;4878408;29;20041;-78
2022/06/15 10:42:00;;;;;;;7.47;2.70;;;;;;;19.36;52.37;102012.47;4867246;29;20040;-78
2022/06/15 10:44:29;;;;;;;3.97;1.98;;;;;;;19.36;52.26;102011.63;4877271;29;20032;-78
2022/06/15 10:47:00;;;;;;;4.80;2.33;;;;;;;19.38;52.22;102023.84;4881377;29;20040;-78
2022/06/15 10:49:28;;;;;;;5.10;2.20;;;;;;;19.35;52.98;102012.56;4879210;29;20025;-78
2022/06/15 10:51:54;;;;;;;4.65;2.20;;;;;;;19.40;53.39;102009.63;4879941;29;20164;-79
2022/06/15 11:03:31;;;;;;;4.78;2.08;;;;;;;19.50;50.68;102021.41;4883303;29;19910;-78
2022/06/15 11:05:58;;;;;;;4.05;2.35;;;;;;;19.47;50.75;102017.16;4876461;29;20326;-79
2022/06/15 11:08:29;;;;;;;3.80;1.80;;;;;;;19.45;51.55;102012.88;4879299;29;20052;-78
2022/06/15 11:11:11;;;;;;;3.40;2.08;;;;;;;19.50;50.89;102014.31;4876208;29;20241;-78
2022/06/15 11:13:42;;;;;;;6.78;2.03;;;;;;;19.53;50.45;102013.25;4889300;29;20036;-79
2022/06/15 11:19:09;;;;;;;3.88;1.83;;;;;;;19.53;50.87;102008.78;4881315;29;20338;-78
2022/06/15 11:22:02;;;;;;;2.58;1.80;;;;;;;19.58;52.71;101991.75;4881802;29;20232;-78
2022/06/15 11:24:27;;;;;;;3.30;2.08;;;;;;;19.69;50.35;101989.28;4875761;29;20037;-78
2022/06/15 11:27:20;;;;;;;4.15;2.03;;;;;;;19.73;50.05;101994.34;4879315;29;20045;-78
2022/06/15 11:29:57;;;;;;;6.80;2.15;;;;;;;19.74;49.58;101980.09;4880073;29;20041;-78
2022/06/15 11:32:51;;;;;;;5.10;2.05;;;;;;;19.85;49.82;101989.25;4878904;29;20051;-78
2022/06/15 11:35:41;;;;;;;3.65;2.03;;;;;;;19.90;50.25;101979.16;4878319;29;20028;-78
2022/06/15 11:38:23;;;;;;;4.53;2.13;;;;;;;19.92;50.54;101985.25;4876729;29;20247;-78
2022/06/15 11:41:01;;;;;;;2.65;1.73;;;;;;;19.94;50.97;101975.38;4875821;29;20353;-78
2022/06/15 11:43:38;;;;;;;5.63;2.55;;;;;;;20.05;49.82;101986.19;4880557;29;20041;-78
2022/06/15 11:46:21;;;;;;;3.35;1.70;;;;;;;20.05;50.48;101978.22;4862603;29;20029;-78
2022/06/15 11:49:04;;;;;;;7.35;1.80;;;;;;;20.10;48.99;101976.13;4876595;29;20037;-78
2022/06/15 11:51:51;;;;;;;4.63;1.85;;;;;;;20.16;48.93;101984.66;4861882;29;20025;-78
2022/06/15 11:54:46;;;;;;;5.05;1.88;;;;;;;20.16;47.75;101972.22;4886615;29;20088;-78
2022/06/15 11:57:24;;;;;;;6.93;2.47;;;;;;;20.17;48.44;101971.25;4873915;29;20331;-78
2022/06/15 12:00:17;;;;;;;5.00;2.15;;;;;;;20.17;49.22;101971.25;4875768;29;20343;-78